createdAt,value
2018-05-31T00:00:56.509Z,42.10
2018-05-31T00:01:56.524Z,41.40
2018-05-31T00:02:56.546Z,40.70
2018-05-31T00:03:56.567Z,38.90
2018-05-31T00:04:56.671Z,40.20
2018-05-31T00:05:56.593Z,41.40
2018-05-31T00:06:56.596Z,39.50
2018-05-31T00:07:56.617Z,40.30
2018-05-31T00:08:56.620Z,43.00
2018-05-31T00:09:56.749Z,42.50
2018-05-31T00:10:56.639Z,45.10
2018-05-31T00:11:56.651Z,45.50
2018-05-31T00:12:56.662Z,43.10
2018-05-31T00:13:56.696Z,44.70
2018-05-31T00:14:56.902Z,42.50
2018-05-31T00:15:56.695Z,42.10
2018-05-31T00:16:56.712Z,43.50
2018-05-31T00:17:56.734Z,45.10
2018-05-31T00:18:56.756Z,43.80
2018-05-31T00:19:56.862Z,45.00
2018-05-31T00:20:56.761Z,44.10
2018-05-31T00:21:56.772Z,45.70
2018-05-31T00:22:56.804Z,48.10
2018-05-31T00:23:56.817Z,50.50
2018-05-31T00:24:56.907Z,51.60
2018-05-31T00:25:56.822Z,51.10
2018-05-31T00:26:56.840Z,49.60
2018-05-31T00:27:56.866Z,48.50
2018-05-31T00:28:56.857Z,45.80
2018-05-31T00:29:57.377Z,47.30
2018-05-31T00:30:56.886Z,47.30
2018-05-31T00:31:56.906Z,47.80
2018-05-31T00:32:56.910Z,46.70
2018-05-31T00:33:56.945Z,46.90
2018-05-31T00:34:57.054Z,44.50
2018-05-31T00:35:56.950Z,45.30
2018-05-31T00:36:56.983Z,45.10
2018-05-31T00:37:56.994Z,47.50
2018-05-31T00:38:56.980Z,49.60
2018-05-31T00:39:57.193Z,49.50
2018-05-31T00:40:57.027Z,47.90
2018-05-31T00:41:57.024Z,48.90
2018-05-31T00:42:57.056Z,53.40
2018-05-31T00:43:57.059Z,50.10
2018-05-31T00:44:57.170Z,47.30
2018-05-31T00:45:57.089Z,49.50
2018-05-31T00:46:57.102Z,48.20
2018-05-31T00:47:57.099Z,49.20
2018-05-31T00:48:57.119Z,45.80
2018-05-31T00:49:57.340Z,44.80
2018-05-31T00:50:57.155Z,45.30
2018-05-31T00:51:57.146Z,44.10
2018-05-31T00:52:57.179Z,46.10
2018-05-31T00:53:57.188Z,45.90
2018-05-31T00:54:57.342Z,46.00
2018-05-31T00:55:57.190Z,47.20
2018-05-31T00:56:57.218Z,46.50
2018-05-31T00:57:57.234Z,45.10
2018-05-31T00:58:57.240Z,44.70
2018-05-31T00:59:57.739Z,46.10
2018-05-31T01:00:57.281Z,45.70
2018-05-31T01:01:57.277Z,43.30
2018-05-31T01:02:57.287Z,44.10
2018-05-31T01:03:57.312Z,45.10
2018-05-31T01:04:57.512Z,44.00
2018-05-31T01:05:57.326Z,45.90
2018-05-31T01:06:57.348Z,45.50
2018-05-31T01:07:57.350Z,47.50
2018-05-31T01:08:57.351Z,48.20
2018-05-31T01:09:57.376Z,49.20
2018-05-31T01:10:57.473Z,48.90
2018-05-31T01:11:57.410Z,47.60
2018-05-31T01:12:57.420Z,48.00
2018-05-31T01:13:57.432Z,49.50
2018-05-31T01:14:57.441Z,51.50
2018-05-31T01:15:57.458Z,49.80
2018-05-31T01:16:57.573Z,48.40
2018-05-31T01:17:57.466Z,49.80
2018-05-31T01:18:57.496Z,49.20
2018-05-31T01:19:57.511Z,49.90
2018-05-31T01:20:57.523Z,51.90
2018-05-31T01:21:57.609Z,51.90
2018-05-31T01:22:57.521Z,50.20
2018-05-31T01:23:57.552Z,50.20
2018-05-31T01:24:57.546Z,50.90
2018-05-31T01:25:57.567Z,53.20
2018-05-31T01:26:57.795Z,54.80
2018-05-31T01:27:57.579Z,55.70
2018-05-31T01:28:57.594Z,60.60
2018-05-31T01:29:57.647Z,68.00
2018-05-31T01:30:57.636Z,65.60
2018-05-31T01:31:57.638Z,71.70
2018-05-31T01:32:57.839Z,70.70
2018-05-31T01:33:57.678Z,67.20
2018-05-31T01:34:57.693Z,70.40
2018-05-31T01:35:57.694Z,72.00
2018-05-31T01:36:57.715Z,69.00
2018-05-31T01:37:58.074Z,69.10
2018-05-31T01:38:57.714Z,71.80
2018-05-31T01:39:57.738Z,71.50
2018-05-31T01:40:57.750Z,73.10
2018-05-31T01:41:57.752Z,70.00
2018-05-31T01:42:57.878Z,68.60
2018-05-31T01:43:57.791Z,65.90
2018-05-31T01:44:57.798Z,68.10
2018-05-31T01:45:57.795Z,67.50
2018-05-31T01:46:57.828Z,67.50
2018-05-31T01:47:58.040Z,65.60
2018-05-31T01:48:57.856Z,67.20
2018-05-31T01:49:57.854Z,74.50
2018-05-31T01:50:57.860Z,70.00
2018-05-31T01:51:57.891Z,70.10
2018-05-31T01:52:58.079Z,69.00
2018-05-31T01:53:57.903Z,68.40
2018-05-31T01:54:57.907Z,67.20
2018-05-31T01:55:57.919Z,68.50
2018-05-31T01:56:57.937Z,66.00
2018-05-31T01:57:58.163Z,70.50
2018-05-31T01:58:57.967Z,66.50
2018-05-31T01:59:57.993Z,72.10
2018-05-31T02:00:57.995Z,67.90
2018-05-31T02:01:58.000Z,66.90
2018-05-31T02:02:58.217Z,67.30
2018-05-31T02:03:58.021Z,69.00
2018-05-31T02:04:58.022Z,68.70
2018-05-31T02:05:58.051Z,69.10
2018-05-31T02:06:58.069Z,70.90
2018-05-31T02:07:58.264Z,67.40
2018-05-31T02:08:58.080Z,67.00
2018-05-31T02:09:58.085Z,68.50
2018-05-31T02:10:58.112Z,69.80
2018-05-31T02:11:58.105Z,72.20
2018-05-31T02:12:58.228Z,70.30
2018-05-31T02:13:58.141Z,67.40
2018-05-31T02:14:58.168Z,68.10
2018-05-31T02:15:58.150Z,67.40
2018-05-31T02:16:58.183Z,69.50
2018-05-31T02:17:58.395Z,67.80
2018-05-31T02:18:58.185Z,64.30
2018-05-31T02:19:58.207Z,66.30
2018-05-31T02:20:58.232Z,66.40
2018-05-31T02:21:58.246Z,67.10
2018-05-31T02:22:58.250Z,66.60
2018-05-31T02:23:58.442Z,68.90
2018-05-31T02:24:58.256Z,68.40
2018-05-31T02:25:58.289Z,74.00
2018-05-31T02:26:58.291Z,75.90
2018-05-31T02:27:58.295Z,74.70
2018-05-31T02:28:58.418Z,78.00
2018-05-31T02:29:58.315Z,74.30
2018-05-31T02:30:58.347Z,73.30
2018-05-31T02:31:58.357Z,74.60
2018-05-31T02:32:58.349Z,78.80
2018-05-31T02:33:58.579Z,80.80
2018-05-31T02:34:58.399Z,82.40
2018-05-31T02:35:58.396Z,83.60
2018-05-31T02:36:58.408Z,83.50
2018-05-31T02:37:58.433Z,81.70
2018-05-31T02:38:58.441Z,83.20
2018-05-31T02:39:58.644Z,85.90
2018-05-31T02:40:58.448Z,85.20
2018-05-31T02:41:58.466Z,86.60
2018-05-31T02:42:58.488Z,84.40
2018-05-31T02:43:58.493Z,83.80
2018-05-31T02:44:58.706Z,87.60
2018-05-31T02:45:58.512Z,86.40
2018-05-31T02:46:58.534Z,88.00
2018-05-31T02:47:58.524Z,84.90
2018-05-31T02:48:58.537Z,87.30
2018-05-31T02:49:58.754Z,83.70
2018-05-31T02:50:58.562Z,81.70
2018-05-31T02:51:58.569Z,86.40
2018-05-31T02:52:58.600Z,82.30
2018-05-31T02:53:58.599Z,92.20
2018-05-31T02:54:58.630Z,84.20
2018-05-31T02:55:58.723Z,88.10
2018-05-31T02:56:58.640Z,89.80
2018-05-31T02:57:58.644Z,87.90
2018-05-31T02:58:58.654Z,88.40
2018-05-31T02:59:58.684Z,90.50
2018-05-31T03:00:58.897Z,89.10
2018-05-31T03:01:58.697Z,86.90
2018-05-31T03:02:58.710Z,81.40
2018-05-31T03:03:58.736Z,83.00
2018-05-31T03:04:58.732Z,83.80
2018-05-31T03:05:58.855Z,81.20
2018-05-31T03:06:58.750Z,86.80
2018-05-31T03:07:58.757Z,86.40
2018-05-31T03:08:58.773Z,85.40
2018-05-31T03:09:58.792Z,89.30
2018-05-31T03:10:58.912Z,91.30
2018-05-31T03:11:58.822Z,91.90
2018-05-31T03:12:58.840Z,96.40
2018-05-31T03:13:58.851Z,90.60
2018-05-31T03:14:58.852Z,90.70
2018-05-31T03:15:59.074Z,87.20
2018-05-31T03:16:58.886Z,85.00
2018-05-31T03:17:58.897Z,85.70
2018-05-31T03:18:58.902Z,81.10
2018-05-31T03:19:59.028Z,82.10
2018-05-31T03:20:59.128Z,80.60
2018-05-31T03:21:58.932Z,80.50
2018-05-31T03:22:58.951Z,79.60
2018-05-31T03:23:58.947Z,85.20
2018-05-31T03:24:58.972Z,82.20
2018-05-31T03:25:59.065Z,84.20
2018-05-31T03:26:58.990Z,79.80
2018-05-31T03:27:59.008Z,81.60
2018-05-31T03:28:59.010Z,79.40
2018-05-31T03:29:59.015Z,80.40
2018-05-31T03:30:59.119Z,86.80
2018-05-31T03:31:59.059Z,82.00
2018-05-31T03:32:59.065Z,85.90
2018-05-31T03:33:59.058Z,88.70
2018-05-31T03:34:59.079Z,84.20
2018-05-31T03:35:59.180Z,86.00
2018-05-31T03:36:59.104Z,85.70
2018-05-31T03:37:59.127Z,91.60
2018-05-31T03:38:59.117Z,101.80
2018-05-31T03:39:59.145Z,105.90
2018-05-31T03:40:59.261Z,117.50
2018-05-31T03:41:59.173Z,139.80
2018-05-31T03:42:59.178Z,143.90
2018-05-31T03:43:59.168Z,133.90
2018-05-31T03:44:59.192Z,132.00
2018-05-31T03:45:59.290Z,126.80
2018-05-31T03:46:59.224Z,127.40
2018-05-31T03:47:59.232Z,123.80
2018-05-31T03:48:59.228Z,122.20
2018-05-31T03:49:59.249Z,125.20
2018-05-31T03:50:59.370Z,117.20
2018-05-31T03:51:59.265Z,110.10
2018-05-31T03:52:59.293Z,106.20
2018-05-31T03:53:59.304Z,102.80
2018-05-31T03:54:59.322Z,107.20
2018-05-31T03:55:59.405Z,106.00
2018-05-31T03:56:59.341Z,97.80
2018-05-31T03:57:59.333Z,93.80
2018-05-31T03:58:59.365Z,91.50
2018-05-31T03:59:59.349Z,83.00
2018-05-31T04:00:59.487Z,79.40
2018-05-31T04:01:59.404Z,85.10
2018-05-31T04:02:59.400Z,82.80
2018-05-31T04:03:59.417Z,80.40
2018-05-31T04:04:59.412Z,78.00
2018-05-31T04:05:59.738Z,79.70
2018-05-31T04:06:59.435Z,80.00
2018-05-31T04:07:59.462Z,76.00
2018-05-31T04:08:59.451Z,76.80
2018-05-31T04:09:59.484Z,76.10
2018-05-31T04:10:59.491Z,74.00
2018-05-31T04:11:59.589Z,71.60
2018-05-31T04:12:59.573Z,72.90
2018-05-31T04:13:59.522Z,67.50
2018-05-31T04:14:59.544Z,71.10
2018-05-31T04:15:59.543Z,71.60
2018-05-31T04:16:59.668Z,70.90
2018-05-31T04:17:59.553Z,68.40
2018-05-31T04:18:59.592Z,72.90
2018-05-31T04:19:59.601Z,71.10
2018-05-31T04:20:59.592Z,70.40
2018-05-31T04:21:59.604Z,69.70
2018-05-31T04:22:59.722Z,70.80
2018-05-31T04:23:59.632Z,67.60
2018-05-31T04:24:59.651Z,68.30
2018-05-31T04:25:59.656Z,67.30
2018-05-31T04:26:59.677Z,66.80
2018-05-31T04:27:59.787Z,69.20
2018-05-31T04:28:59.709Z,71.90
2018-05-31T04:29:59.707Z,70.10
2018-05-31T04:30:59.715Z,71.50
2018-05-31T04:31:59.716Z,69.50
2018-05-31T04:32:59.836Z,71.60
2018-05-31T04:33:59.755Z,68.70
2018-05-31T04:34:59.744Z,68.40
2018-05-31T04:35:59.767Z,67.50
2018-05-31T04:36:59.793Z,70.00
2018-05-31T04:37:59.799Z,64.50
2018-05-31T04:39:00.013Z,65.20
2018-05-31T04:39:59.812Z,64.50
2018-05-31T04:40:59.829Z,65.30
2018-05-31T04:41:59.848Z,68.50
2018-05-31T04:42:59.841Z,67.30
2018-05-31T04:43:59.944Z,65.40
2018-05-31T04:44:59.855Z,65.90
2018-05-31T04:45:59.872Z,66.30
2018-05-31T04:46:59.880Z,67.00
2018-05-31T04:47:59.895Z,66.90
2018-05-31T04:49:00.015Z,65.70
2018-05-31T04:49:59.915Z,68.40
2018-05-31T04:50:59.930Z,62.80
2018-05-31T04:51:59.955Z,64.50
2018-05-31T04:52:59.956Z,56.90
2018-05-31T04:54:00.080Z,59.10
2018-05-31T04:54:59.968Z,59.60
2018-05-31T04:55:59.999Z,57.60
2018-05-31T04:57:00.002Z,64.50
2018-05-31T04:58:00.005Z,64.60
2018-05-31T04:59:00.112Z,61.40
2018-05-31T05:00:00.048Z,66.80
2018-05-31T05:01:00.045Z,63.60
2018-05-31T05:02:00.050Z,67.30
2018-05-31T05:03:00.138Z,66.50
2018-05-31T05:04:00.165Z,67.10
2018-05-31T05:05:00.099Z,64.50
2018-05-31T05:06:00.094Z,61.90
2018-05-31T05:07:00.102Z,69.30
2018-05-31T05:08:00.110Z,74.50
2018-05-31T05:09:00.243Z,74.00
2018-05-31T05:10:00.131Z,75.50
2018-05-31T05:11:00.156Z,72.00
2018-05-31T05:12:00.168Z,73.40
2018-05-31T05:13:00.187Z,74.00
2018-05-31T05:14:00.289Z,71.70
2018-05-31T05:15:00.189Z,68.40
2018-05-31T05:16:00.210Z,71.50
2018-05-31T05:17:00.214Z,68.00
2018-05-31T05:18:00.223Z,72.30
2018-05-31T05:19:00.347Z,69.90
2018-05-31T05:20:00.264Z,72.70
2018-05-31T05:21:00.265Z,68.80
2018-05-31T05:22:00.275Z,68.60
2018-05-31T05:23:00.299Z,69.30
2018-05-31T05:24:00.389Z,71.20
2018-05-31T05:25:00.294Z,73.40
2018-05-31T05:26:00.312Z,70.30
2018-05-31T05:27:00.318Z,67.40
2018-05-31T05:28:00.332Z,68.00
2018-05-31T05:29:00.469Z,67.70
2018-05-31T05:30:00.371Z,67.90
2018-05-31T05:31:00.376Z,66.60
2018-05-31T05:32:00.373Z,67.30
2018-05-31T05:33:00.395Z,72.70
2018-05-31T05:34:00.408Z,69.90
2018-05-31T05:35:00.528Z,73.70
2018-05-31T05:36:00.430Z,69.60
2018-05-31T05:37:00.440Z,69.70
2018-05-31T05:38:00.459Z,66.50
2018-05-31T05:39:00.458Z,70.80
2018-05-31T05:40:00.562Z,72.80
2018-05-31T05:41:00.482Z,66.80
2018-05-31T05:42:00.499Z,66.80
2018-05-31T05:43:00.516Z,67.00
2018-05-31T05:44:00.519Z,63.50
2018-05-31T05:45:00.524Z,63.80
2018-05-31T05:46:00.646Z,61.40
2018-05-31T05:47:00.548Z,57.30
2018-05-31T05:48:00.566Z,62.90
2018-05-31T05:49:00.584Z,65.30
2018-05-31T05:50:00.582Z,60.00
2018-05-31T05:51:00.697Z,61.20
2018-05-31T05:52:00.602Z,62.90
2018-05-31T05:53:00.597Z,61.00
2018-05-31T05:54:00.634Z,56.80
2018-05-31T05:55:00.638Z,60.90
2018-05-31T05:56:00.642Z,62.00
2018-05-31T05:57:00.875Z,62.20
2018-05-31T05:58:00.676Z,57.00
2018-05-31T05:59:00.670Z,64.10
2018-05-31T06:00:00.681Z,57.70
2018-05-31T06:01:00.689Z,62.10
2018-05-31T06:02:00.807Z,64.20
2018-05-31T06:03:00.728Z,63.70
2018-05-31T06:04:00.728Z,60.70
2018-05-31T06:05:00.749Z,60.40
2018-05-31T06:06:00.759Z,66.10
2018-05-31T06:07:00.862Z,62.50
2018-05-31T06:09:00.781Z,61.70
2018-05-31T06:10:00.786Z,61.50
2018-05-31T06:11:00.817Z,61.70
2018-05-31T06:12:00.913Z,61.10
2018-05-31T06:13:00.946Z,64.10
2018-05-31T06:14:00.823Z,56.70
2018-05-31T06:15:00.847Z,57.50
2018-05-31T06:16:00.858Z,60.20
2018-05-31T06:17:00.971Z,61.20
2018-05-31T06:18:00.869Z,60.10
2018-05-31T06:19:00.924Z,60.10
2018-05-31T06:20:00.898Z,61.90
2018-05-31T06:21:00.909Z,60.00
2018-05-31T06:22:01.007Z,62.00
2018-05-31T06:23:00.925Z,57.90
2018-05-31T06:24:00.955Z,57.80
2018-05-31T06:25:00.957Z,61.60
2018-05-31T06:26:00.949Z,58.20
2018-05-31T06:27:01.062Z,58.50
2018-05-31T06:28:00.986Z,55.50
2018-05-31T06:29:01.005Z,51.50
2018-05-31T06:30:01.007Z,55.90
2018-05-31T06:31:01.004Z,55.60
2018-05-31T06:32:01.127Z,55.10
2018-05-31T06:33:01.024Z,53.50
2018-05-31T06:34:01.035Z,54.70
2018-05-31T06:35:01.045Z,52.80
2018-05-31T06:36:01.055Z,53.20
2018-05-31T06:37:01.238Z,56.00
2018-05-31T06:38:01.089Z,53.60
2018-05-31T06:39:01.113Z,54.10
2018-05-31T06:40:01.119Z,51.90
2018-05-31T06:41:01.138Z,51.30
2018-05-31T06:42:01.241Z,54.10
2018-05-31T06:43:01.167Z,53.30
2018-05-31T06:44:01.170Z,52.80
2018-05-31T06:45:01.168Z,54.50
2018-05-31T06:46:01.183Z,54.60
2018-05-31T06:47:01.291Z,53.50
2018-05-31T06:48:01.185Z,53.70
2018-05-31T06:49:01.214Z,52.50
2018-05-31T06:50:01.245Z,56.10
2018-05-31T06:51:01.241Z,51.90
2018-05-31T06:52:01.247Z,53.00
2018-05-31T06:53:01.354Z,54.70
2018-05-31T06:54:01.261Z,54.40
2018-05-31T06:55:01.282Z,52.20
2018-05-31T06:56:01.278Z,53.50
2018-05-31T06:57:01.283Z,53.30
2018-05-31T06:58:01.403Z,52.40
2018-05-31T06:59:01.325Z,50.80
2018-05-31T07:00:01.324Z,52.00
2018-05-31T07:01:01.321Z,53.30
2018-05-31T07:02:01.330Z,54.20
2018-05-31T07:03:01.463Z,54.80
2018-05-31T07:04:01.363Z,55.60
2018-05-31T07:05:01.377Z,53.60
2018-05-31T07:06:01.393Z,51.00
2018-05-31T07:07:01.397Z,52.40
2018-05-31T07:08:01.512Z,53.70
2018-05-31T07:09:01.416Z,53.60
2018-05-31T07:10:01.419Z,52.70
2018-05-31T07:11:01.445Z,51.20
2018-05-31T07:12:01.453Z,53.30
2018-05-31T07:13:01.820Z,51.80
2018-05-31T07:14:01.469Z,52.70
2018-05-31T07:15:01.489Z,52.60
2018-05-31T07:16:01.503Z,51.80
2018-05-31T07:17:01.501Z,50.10
2018-05-31T07:18:01.600Z,52.30
2018-05-31T07:19:01.516Z,51.40
2018-05-31T07:20:01.533Z,49.40
2018-05-31T07:21:01.554Z,51.30
2018-05-31T07:22:01.538Z,51.30
2018-05-31T07:23:01.664Z,50.10
2018-05-31T07:24:01.585Z,49.80
2018-05-31T07:25:01.571Z,49.70
2018-05-31T07:26:01.604Z,48.10
2018-05-31T07:27:01.598Z,48.90
2018-05-31T07:28:01.608Z,50.00
2018-05-31T07:29:01.718Z,49.60
2018-05-31T07:30:01.626Z,48.50
2018-05-31T07:31:01.653Z,50.50
2018-05-31T07:32:01.666Z,51.10
2018-05-31T07:33:01.655Z,51.80
2018-05-31T07:34:01.787Z,51.30
2018-05-31T07:35:01.677Z,50.90
2018-05-31T07:36:01.688Z,47.70
2018-05-31T07:37:01.702Z,51.30
2018-05-31T07:38:01.714Z,47.30
2018-05-31T07:39:01.730Z,44.90
2018-05-31T07:40:01.849Z,48.80
2018-05-31T07:41:01.765Z,46.80
2018-05-31T07:42:01.781Z,46.70
2018-05-31T07:43:01.761Z,47.20
2018-05-31T07:44:01.795Z,49.20
2018-05-31T07:45:01.948Z,46.10
2018-05-31T07:46:01.804Z,49.00
2018-05-31T07:47:01.820Z,47.10
2018-05-31T07:48:01.825Z,47.40
2018-05-31T07:49:01.841Z,45.90
2018-05-31T07:50:01.935Z,42.70
2018-05-31T07:51:01.847Z,43.10
2018-05-31T07:52:01.872Z,48.10
2018-05-31T07:53:01.873Z,45.10
2018-05-31T07:54:01.895Z,47.80
2018-05-31T07:55:02.237Z,44.20
2018-05-31T07:56:01.900Z,45.30
2018-05-31T07:57:01.904Z,43.60
2018-05-31T07:58:01.945Z,48.00
2018-05-31T07:59:01.936Z,48.30
2018-05-31T08:00:02.060Z,43.60
2018-05-31T08:01:01.945Z,48.20
2018-05-31T08:02:01.970Z,46.60
2018-05-31T08:03:01.969Z,47.10
2018-05-31T08:04:01.981Z,48.40
2018-05-31T08:05:02.109Z,47.40
2018-05-31T08:06:02.004Z,48.30
2018-05-31T08:07:02.016Z,41.60
2018-05-31T08:08:02.023Z,47.50
2018-05-31T08:09:02.029Z,45.30
2018-05-31T08:10:02.166Z,46.90
2018-05-31T08:11:02.053Z,47.50
2018-05-31T08:12:02.083Z,47.80
2018-05-31T08:13:02.075Z,47.20
2018-05-31T08:14:02.078Z,51.80
2018-05-31T08:15:02.220Z,49.20
2018-05-31T08:16:02.128Z,47.60
2018-05-31T08:17:02.134Z,52.30
2018-05-31T08:18:02.143Z,49.80
2018-05-31T08:19:02.144Z,51.80
2018-05-31T08:20:02.243Z,52.40
2018-05-31T08:21:02.166Z,53.20
2018-05-31T08:22:02.188Z,54.10
2018-05-31T08:23:02.199Z,52.70
2018-05-31T08:24:02.191Z,53.10
2018-05-31T08:25:02.315Z,52.60
2018-05-31T08:26:02.205Z,55.40
2018-05-31T08:27:02.228Z,54.30
2018-05-31T08:28:02.226Z,50.80
2018-05-31T08:29:02.247Z,53.50
2018-05-31T08:30:02.350Z,49.30
2018-05-31T08:31:02.262Z,49.80
2018-05-31T08:32:02.289Z,51.30
2018-05-31T08:33:02.308Z,52.40
2018-05-31T08:34:02.295Z,48.90
2018-05-31T08:35:02.409Z,51.40
2018-05-31T08:36:02.335Z,52.30
2018-05-31T08:37:02.341Z,50.40
2018-05-31T08:38:02.328Z,48.30
2018-05-31T08:39:02.344Z,51.00
2018-05-31T08:40:02.468Z,52.60
2018-05-31T08:41:02.369Z,54.10
2018-05-31T08:42:02.367Z,53.30
2018-05-31T08:43:02.382Z,52.10
2018-05-31T08:44:02.399Z,51.00
2018-05-31T08:45:02.515Z,49.40
2018-05-31T08:46:02.414Z,47.30
2018-05-31T08:47:02.419Z,49.40
2018-05-31T08:48:02.434Z,49.00
2018-05-31T08:49:02.464Z,49.50
2018-05-31T08:50:02.564Z,51.10
2018-05-31T08:51:02.518Z,50.50
2018-05-31T08:52:02.471Z,50.10
2018-05-31T08:53:02.501Z,51.90
2018-05-31T08:54:02.496Z,49.70
2018-05-31T08:55:02.603Z,50.60
2018-05-31T08:56:02.515Z,51.10
2018-05-31T08:57:02.541Z,51.50
2018-05-31T08:58:02.544Z,51.40
2018-05-31T08:59:02.565Z,49.30
2018-05-31T09:00:02.659Z,49.30
2018-05-31T09:01:02.574Z,49.40
2018-05-31T09:02:02.595Z,50.60
2018-05-31T09:03:02.592Z,47.50
2018-05-31T09:04:02.602Z,46.80
2018-05-31T09:05:02.607Z,49.40
2018-05-31T09:06:02.737Z,50.20
2018-05-31T09:07:02.637Z,48.80
2018-05-31T09:08:02.653Z,48.30
2018-05-31T09:09:02.656Z,48.40
2018-05-31T09:10:02.655Z,45.60
2018-05-31T09:11:02.765Z,47.60
2018-05-31T09:12:02.694Z,46.70
2018-05-31T09:13:02.698Z,47.00
2018-05-31T09:14:02.712Z,46.00
2018-05-31T09:15:02.715Z,46.30
2018-05-31T09:16:02.814Z,48.00
2018-05-31T09:17:02.724Z,45.10
2018-05-31T09:18:02.745Z,46.60
2018-05-31T09:19:02.774Z,46.50
2018-05-31T09:20:02.753Z,49.70
2018-05-31T09:21:03.021Z,48.20
2018-05-31T09:22:02.798Z,47.80
2018-05-31T09:23:02.806Z,46.30
2018-05-31T09:24:02.800Z,48.80
2018-05-31T09:25:02.808Z,51.00
2018-05-31T09:26:02.942Z,50.90
2018-05-31T09:27:02.831Z,51.40
2018-05-31T09:28:02.844Z,52.40
2018-05-31T09:29:02.869Z,49.50
2018-05-31T09:30:02.871Z,52.70
2018-05-31T09:31:03.087Z,51.60
2018-05-31T09:32:02.889Z,52.40
2018-05-31T09:33:02.887Z,51.70
2018-05-31T09:34:02.916Z,51.70
2018-05-31T09:35:02.932Z,51.60
2018-05-31T09:36:03.117Z,49.90
2018-05-31T09:37:02.941Z,52.80
2018-05-31T09:38:02.955Z,51.40
2018-05-31T09:39:02.973Z,49.80
2018-05-31T09:40:02.955Z,50.50
2018-05-31T09:41:03.192Z,51.40
2018-05-31T09:42:03.000Z,48.90
2018-05-31T09:43:02.988Z,47.60
2018-05-31T09:44:03.003Z,47.60
2018-05-31T09:45:03.030Z,45.20
2018-05-31T09:46:03.221Z,45.90
2018-05-31T09:47:03.030Z,51.10
2018-05-31T09:48:03.040Z,49.20
2018-05-31T09:49:03.055Z,53.40
2018-05-31T09:50:03.060Z,55.40
2018-05-31T09:51:03.289Z,50.80
2018-05-31T09:52:03.081Z,51.60
2018-05-31T09:53:03.091Z,45.70
2018-05-31T09:54:03.112Z,51.00
2018-05-31T09:55:03.130Z,51.60
2018-05-31T09:56:03.246Z,51.90
2018-05-31T09:57:03.148Z,46.70
2018-05-31T09:58:03.150Z,57.60
2018-05-31T09:59:03.164Z,55.00
2018-05-31T10:00:03.179Z,54.60
2018-05-31T10:01:03.399Z,56.40
2018-05-31T10:02:03.201Z,54.00
2018-05-31T10:03:03.205Z,53.20
2018-05-31T10:04:03.205Z,53.10
2018-05-31T10:05:03.228Z,55.60
2018-05-31T10:06:03.328Z,55.50
2018-05-31T10:07:03.257Z,52.50
2018-05-31T10:08:03.248Z,53.40
2018-05-31T10:09:03.275Z,50.00
2018-05-31T10:10:03.264Z,51.90
2018-05-31T10:11:03.547Z,53.40
2018-05-31T10:12:03.285Z,51.50
2018-05-31T10:13:03.297Z,51.80
2018-05-31T10:14:03.318Z,55.00
2018-05-31T10:15:03.335Z,57.40
2018-05-31T10:16:03.426Z,56.60
2018-05-31T10:17:03.361Z,54.60
2018-05-31T10:18:03.363Z,55.90
2018-05-31T10:19:03.377Z,55.80
2018-05-31T10:20:03.381Z,48.90
2018-05-31T10:21:03.482Z,49.60
2018-05-31T10:22:03.416Z,41.90
2018-05-31T10:23:03.415Z,44.10
2018-05-31T10:24:03.416Z,40.90
2018-05-31T10:25:03.443Z,40.10
2018-05-31T10:26:03.538Z,38.40
2018-05-31T10:27:03.450Z,39.20
2018-05-31T10:28:03.479Z,36.70
2018-05-31T10:29:03.473Z,32.70
2018-05-31T10:30:03.506Z,32.10
2018-05-31T10:31:03.714Z,33.50
2018-05-31T10:32:03.513Z,30.60
2018-05-31T10:33:03.540Z,28.10
2018-05-31T10:34:03.542Z,27.60
2018-05-31T10:35:03.550Z,24.60
2018-05-31T10:36:03.568Z,27.00
2018-05-31T10:37:03.690Z,27.10
2018-05-31T10:38:03.617Z,25.80
2018-05-31T10:39:03.605Z,23.30
2018-05-31T10:40:03.651Z,22.10
2018-05-31T10:41:03.637Z,20.00
2018-05-31T10:42:03.747Z,19.40
2018-05-31T10:43:03.682Z,19.10
2018-05-31T10:44:03.674Z,17.90
2018-05-31T10:45:03.689Z,18.40
2018-05-31T10:46:03.716Z,18.90
2018-05-31T10:47:03.721Z,18.60
2018-05-31T10:48:03.848Z,18.80
2018-05-31T10:49:03.756Z,18.00
2018-05-31T10:50:03.776Z,17.80
2018-05-31T10:51:03.793Z,18.00
2018-05-31T10:52:03.793Z,18.10
2018-05-31T10:53:03.916Z,19.20
2018-05-31T10:54:03.832Z,18.40
2018-05-31T10:55:03.867Z,20.20
2018-05-31T10:56:03.875Z,21.30
2018-05-31T10:57:03.895Z,21.70
2018-05-31T10:58:04.010Z,20.50
2018-05-31T10:59:03.921Z,19.80
2018-05-31T11:00:03.941Z,20.00
2018-05-31T11:01:03.944Z,19.70
2018-05-31T11:02:03.955Z,21.40
2018-05-31T11:03:04.097Z,20.70
2018-05-31T11:04:04.010Z,19.70
2018-05-31T11:05:04.027Z,20.00
2018-05-31T11:06:04.033Z,21.80
2018-05-31T11:07:04.061Z,20.20
2018-05-31T11:08:04.155Z,20.50
2018-05-31T11:09:04.092Z,19.60
2018-05-31T11:10:04.104Z,20.80
2018-05-31T11:11:04.120Z,20.70
2018-05-31T11:12:04.129Z,20.40
2018-05-31T11:13:04.257Z,20.90
2018-05-31T11:14:04.163Z,20.80
2018-05-31T11:15:04.200Z,22.00
2018-05-31T11:16:04.199Z,20.40
2018-05-31T11:17:04.219Z,21.10
2018-05-31T11:18:04.347Z,20.70
2018-05-31T11:19:04.250Z,19.90
2018-05-31T11:20:04.264Z,20.00
2018-05-31T11:21:04.294Z,20.80
2018-05-31T11:22:04.320Z,20.50
2018-05-31T11:23:04.435Z,22.00
2018-05-31T11:24:04.357Z,21.80
2018-05-31T11:25:04.369Z,22.50
2018-05-31T11:26:04.390Z,21.50
2018-05-31T11:27:04.414Z,21.60
2018-05-31T11:28:04.523Z,23.60
2018-05-31T11:29:04.430Z,24.50
2018-05-31T11:30:04.449Z,23.70
2018-05-31T11:31:04.601Z,25.10
2018-05-31T11:32:04.511Z,25.40
2018-05-31T11:33:04.610Z,26.10
2018-05-31T11:34:04.530Z,25.50
2018-05-31T11:35:04.545Z,26.40
2018-05-31T11:36:04.576Z,25.90
2018-05-31T11:37:04.583Z,26.20
2018-05-31T11:38:04.725Z,26.60
2018-05-31T11:39:04.625Z,26.70
2018-05-31T11:40:04.648Z,27.10
2018-05-31T11:41:04.663Z,28.10
2018-05-31T11:42:04.676Z,27.10
2018-05-31T11:43:04.823Z,28.30
2018-05-31T11:44:04.727Z,27.70
2018-05-31T11:45:04.758Z,28.10
2018-05-31T11:46:04.754Z,27.10
2018-05-31T11:47:04.789Z,28.70
2018-05-31T11:48:04.902Z,30.20
2018-05-31T11:49:04.828Z,29.20
2018-05-31T11:50:04.834Z,27.80
2018-05-31T11:51:04.869Z,27.70
2018-05-31T11:52:04.892Z,27.90
2018-05-31T11:53:04.999Z,29.20
2018-05-31T11:54:04.935Z,29.80
2018-05-31T11:55:04.946Z,30.30
2018-05-31T11:56:04.950Z,32.10
2018-05-31T11:57:04.993Z,31.40
2018-05-31T11:58:05.117Z,31.50
2018-05-31T11:59:05.031Z,31.50
2018-05-31T12:00:05.057Z,32.50
2018-05-31T12:01:05.080Z,32.60
2018-05-31T12:02:05.087Z,33.30
2018-05-31T12:03:05.193Z,34.80
2018-05-31T12:04:05.136Z,33.60
2018-05-31T12:05:05.154Z,35.00
2018-05-31T12:06:05.172Z,33.60
2018-05-31T12:07:05.175Z,34.00
2018-05-31T12:08:05.340Z,34.70
2018-05-31T12:09:05.232Z,34.20
2018-05-31T12:10:05.250Z,35.70
2018-05-31T12:11:05.254Z,34.20
2018-05-31T12:12:05.268Z,36.60
2018-05-31T12:13:05.406Z,35.40
2018-05-31T12:14:05.314Z,35.40
2018-05-31T12:15:05.329Z,34.90
2018-05-31T12:16:05.358Z,35.30
2018-05-31T12:17:05.369Z,34.10
2018-05-31T12:18:05.497Z,34.80
2018-05-31T12:19:05.425Z,35.00
2018-05-31T12:20:05.436Z,35.70
2018-05-31T12:21:05.454Z,34.50
2018-05-31T12:22:05.486Z,35.40
2018-05-31T12:23:05.579Z,35.20
2018-05-31T12:24:05.524Z,35.60
2018-05-31T12:25:05.516Z,36.00
2018-05-31T12:26:05.542Z,34.60
2018-05-31T12:27:05.560Z,36.50
2018-05-31T12:28:05.592Z,37.80
2018-05-31T12:29:05.695Z,37.50
2018-05-31T12:30:05.631Z,36.40
2018-05-31T12:31:05.637Z,38.10
2018-05-31T12:32:05.673Z,37.00
2018-05-31T12:33:05.672Z,37.90
2018-05-31T12:34:05.799Z,37.80
2018-05-31T12:35:05.707Z,40.00
2018-05-31T12:36:05.750Z,38.30
2018-05-31T12:37:05.769Z,39.30
2018-05-31T12:38:05.788Z,40.00
2018-05-31T12:39:05.814Z,38.90
2018-05-31T12:40:06.056Z,40.80
2018-05-31T12:41:05.844Z,40.10
2018-05-31T12:42:05.850Z,40.80
2018-05-31T12:43:05.877Z,40.80
2018-05-31T12:44:05.891Z,38.40
2018-05-31T12:45:05.995Z,37.20
2018-05-31T12:46:05.927Z,37.90
2018-05-31T12:47:05.944Z,40.10
2018-05-31T12:48:05.969Z,39.40
2018-05-31T12:49:05.979Z,40.20
2018-05-31T12:50:06.187Z,40.10
2018-05-31T12:51:06.014Z,38.70
2018-05-31T12:52:06.047Z,40.60
2018-05-31T12:53:06.062Z,39.80
2018-05-31T12:54:06.083Z,41.50